Spar Draco — LAFO6 — position and weather

sailwx.info

Track history (hours):
 
Tides and Currents Weather Stations Pressure Air Temp Water Temp Dewpoint Dewpoint Depression Visibility Wind Speed Wind Dir Waves Ship Positions

Spar Draco

Last reported at 2015-Apr-26 02:30 UTC. Time now 2015-Apr-27 05:35 UTC.
Position N 37°16' E 003°02'.

Length 190 m; draft 11.6 m.

Type: Cargo ship. MMSI: 257799000.

Date/timePositionNaut miles runAvg speedWind from/ knotsBaromVisibWave heightAir tempDewpointWater temp
2015-Apr-26 02:30N 37°16' E 003°02'1111.8
2015-Apr-26 01:33N 37°13' E 002°48'1411.8
2015-Apr-26 00:24N 37°09' E 002°32'1011.5
2015-Apr-25 23:33N 37°07' E 002°20'1211.9
2015-Apr-25 22:33N 37°04' E 002°06'1111.5
2015-Apr-25 21:33N 37°00' E 001°52'1211.5
2015-Apr-25 20:33N 36°58' E 001°38'1111.3
2015-Apr-25 19:33N 36°54' E 001°24'1211.9
2015-Apr-25 18:33N 36°51' E 001°10'1212.3
2015-Apr-25 17:33N 36°48' E 000°55'1212.1
2015-Apr-25 16:33N 36°45' E 000°41'1212.1
2015-Apr-25 15:33N 36°42' E 000°26'1211.6
2015-Apr-25 14:33N 36°39' E 000°12'1111.2
2015-Apr-25 13:33N 36°36' W 000°02'1110.9
2015-Apr-25 12:33N 36°33' W 000°15'1111.0
2015-Apr-25 11:33N 36°31' W 000°28'1111.0
2015-Apr-25 10:33N 36°27' W 000°41'1311.3
2015-Apr-25 09:27N 36°24' W 000°56'1011.4
2015-Apr-25 08:33N 36°22' W 001°08'1311.8
2015-Apr-25 07:25N 36°18' W 001°24'1311.2
2015-Apr-25 06:17N 36°15' W 001°40'1011.4
2015-Apr-25 05:26N 36°12' W 001°51'1111.6
2015-Apr-25 04:27N 36°09' W 002°05'1111.5
2015-Apr-25 03:30N 36°08' W 002°18'1511.4
2015-Apr-25 02:09N 36°07' W 002°37'811.3
2015-Apr-25 01:25N 36°07' W 002°47'1511.3
2015-Apr-25 00:05N 36°06' W 003°06'10011.4
2015-Apr-24 15:20N 36°00' W 005°09'1012.3
2015-Apr-24 14:33N 36°04' W 005°20'4 3.6
2015-Apr-24 13:30N 36°07' W 005°22'0 0.2
2015-Apr-24 12:30N 36°07' W 005°22'0 0.1
2015-Apr-24 11:24N 36°07' W 005°22'0 0.1
2015-Apr-24 10:12N 36°07' W 005°22'0 0.1
2015-Apr-24 09:18N 36°07' W 005°22'0 0.0
2015-Apr-24 07:24N 36°07' W 005°22'0 0.1
2015-Apr-24 06:28N 36°07' W 005°22'2 2.0
2015-Apr-24 05:33N 36°06' W 005°22'5 5.4
2015-Apr-24 04:33N 36°01' W 005°19'10 9.9
2015-Apr-24 03:33N 35°56' W 005°30'5410.8
2015-Apr-23 22:32N 35°55' W 006°37'2211.3
2015-Apr-23 20:33N 36°01' W 007°04'1111.2
2015-Apr-23 19:33N 36°04' W 007°17'1511.0
2015-Apr-23 18:11N 36°09' W 007°35'811.2
2015-Apr-23 17:26N 36°11' W 007°45'2610.8
2015-Apr-23 15:03N 36°19' W 008°15'710.3
2015-Apr-23 14:25N 36°20' W 008°23'910.0
2015-Apr-23 13:33N 36°23' W 008°34'1010.2
2015-Apr-23 12:33N 36°26' W 008°46'1310.6
2015-Apr-23 11:19N 36°30' W 009°01'810.8
2015-Apr-23 10:33N 36°32' W 009°11'2410.5
2015-Apr-23 08:17N 36°48' W 009°33'1910.6
2015-Apr-23 06:27N 37°07' W 009°39'1010.8
2015-Apr-23 05:33N 37°16' W 009°42'1111.2
2015-Apr-23 04:33N 37°27' W 009°45'1411.1
2015-Apr-23 03:16N 37°41' W 009°49'910.8
2015-Apr-23 02:27N 37°50' W 009°51'1011.0
2015-Apr-23 01:32N 37°60' W 009°54'1111.2
2015-Apr-23 00:32N 38°11' W 009°57'1111.3
2015-Apr-22 23:33N 38°21' W 010°00'1211.5
2015-Apr-22 22:33N 38°33' W 010°04'1111.1
2015-Apr-22 21:33N 38°43' W 010°06'1211.8
2015-Apr-22 20:33N 38°55' W 010°06'1211.5
2015-Apr-22 19:33N 39°07' W 010°06'7 7.3
2015-Apr-22 18:33N 39°14' W 010°06'  
2015-Apr-19 06:31N 54°11' W 005°10'1112.0
2015-Apr-19 05:33N 54°23' W 005°10'1111.3
2015-Apr-19 04:34N 54°34' W 005°10'10 9.7
2015-Apr-19 03:33N 54°43' W 005°17'9 9.0
2015-Apr-19 02:34N 54°50' W 005°25'8 8.4
2015-Apr-19 01:34N 54°57' W 005°33'9 8.6
2015-Apr-19 00:30N 55°04' W 005°43'9 9.8
2015-Apr-18 23:33N 55°11' W 005°54'1211.7
2015-Apr-18 22:33N 55°20' W 006°06'1212.0
2015-Apr-18 21:33N 55°24' W 006°26'1413.5
2015-Apr-18 20:33N 55°36' W 006°40'1413.9
2015-Apr-18 19:33N 55°47' W 006°54'17610.1
2015-Apr-18 02:05N 58°38' W 005°37'811.8
2015-Apr-18 01:25N 58°46' W 005°34'  
Track history (hours):
 
Tides and Currents Weather Stations Pressure Air Temp Water Temp Dewpoint Dewpoint Depression Visibility Wind Speed Wind Dir Waves Ship Positions

Spar Draco

Last reported at 2015-Apr-26 02:30 UTC. Time now 2015-Apr-27 05:35 UTC.
Position N 37°16' E 003°02'.

Length 190 m; draft 11.6 m.

Type: Cargo ship. MMSI: 257799000.

Date/timePositionNaut miles runAvg speedWind from/ knotsBaromVisibWave heightAir tempDewpointWater temp
2015-Apr-26 02:30N 37°16' E 003°02'1111.8
2015-Apr-26 01:33N 37°13' E 002°48'1411.8
2015-Apr-26 00:24N 37°09' E 002°32'1011.5
2015-Apr-25 23:33N 37°07' E 002°20'1211.9
2015-Apr-25 22:33N 37°04' E 002°06'1111.5
2015-Apr-25 21:33N 37°00' E 001°52'1211.5
2015-Apr-25 20:33N 36°58' E 001°38'1111.3
2015-Apr-25 19:33N 36°54' E 001°24'1211.9
2015-Apr-25 18:33N 36°51' E 001°10'1212.3
2015-Apr-25 17:33N 36°48' E 000°55'1212.1
2015-Apr-25 16:33N 36°45' E 000°41'1212.1
2015-Apr-25 15:33N 36°42' E 000°26'1211.6
2015-Apr-25 14:33N 36°39' E 000°12'1111.2
2015-Apr-25 13:33N 36°36' W 000°02'1110.9
2015-Apr-25 12:33N 36°33' W 000°15'1111.0
2015-Apr-25 11:33N 36°31' W 000°28'1111.0
2015-Apr-25 10:33N 36°27' W 000°41'1311.3
2015-Apr-25 09:27N 36°24' W 000°56'1011.4
2015-Apr-25 08:33N 36°22' W 001°08'1311.8
2015-Apr-25 07:25N 36°18' W 001°24'1311.2
2015-Apr-25 06:17N 36°15' W 001°40'1011.4
2015-Apr-25 05:26N 36°12' W 001°51'1111.6
2015-Apr-25 04:27N 36°09' W 002°05'1111.5
2015-Apr-25 03:30N 36°08' W 002°18'1511.4
2015-Apr-25 02:09N 36°07' W 002°37'811.3
2015-Apr-25 01:25N 36°07' W 002°47'1511.3
2015-Apr-25 00:05N 36°06' W 003°06'10011.4
2015-Apr-24 15:20N 36°00' W 005°09'1012.3
2015-Apr-24 14:33N 36°04' W 005°20'4 3.6
2015-Apr-24 13:30N 36°07' W 005°22'0 0.2
2015-Apr-24 12:30N 36°07' W 005°22'0 0.1
2015-Apr-24 11:24N 36°07' W 005°22'0 0.1
2015-Apr-24 10:12N 36°07' W 005°22'0 0.1
2015-Apr-24 09:18N 36°07' W 005°22'0 0.0
2015-Apr-24 07:24N 36°07' W 005°22'0 0.1
2015-Apr-24 06:28N 36°07' W 005°22'2 2.0
2015-Apr-24 05:33N 36°06' W 005°22'5 5.4
2015-Apr-24 04:33N 36°01' W 005°19'10 9.9
2015-Apr-24 03:33N 35°56' W 005°30'5410.8
2015-Apr-23 22:32N 35°55' W 006°37'2211.3
2015-Apr-23 20:33N 36°01' W 007°04'1111.2
2015-Apr-23 19:33N 36°04' W 007°17'1511.0
2015-Apr-23 18:11N 36°09' W 007°35'811.2
2015-Apr-23 17:26N 36°11' W 007°45'2610.8
2015-Apr-23 15:03N 36°19' W 008°15'710.3
2015-Apr-23 14:25N 36°20' W 008°23'910.0
2015-Apr-23 13:33N 36°23' W 008°34'1010.2
2015-Apr-23 12:33N 36°26' W 008°46'1310.6
2015-Apr-23 11:19N 36°30' W 009°01'810.8
2015-Apr-23 10:33N 36°32' W 009°11'2410.5
2015-Apr-23 08:17N 36°48' W 009°33'1910.6
2015-Apr-23 06:27N 37°07' W 009°39'1010.8
2015-Apr-23 05:33N 37°16' W 009°42'1111.2
2015-Apr-23 04:33N 37°27' W 009°45'1411.1
2015-Apr-23 03:16N 37°41' W 009°49'910.8
2015-Apr-23 02:27N 37°50' W 009°51'1011.0
2015-Apr-23 01:32N 37°60' W 009°54'1111.2
2015-Apr-23 00:32N 38°11' W 009°57'1111.3
2015-Apr-22 23:33N 38°21' W 010°00'1211.5
2015-Apr-22 22:33N 38°33' W 010°04'1111.1
2015-Apr-22 21:33N 38°43' W 010°06'1211.8
2015-Apr-22 20:33N 38°55' W 010°06'1211.5
2015-Apr-22 19:33N 39°07' W 010°06'7 7.3
2015-Apr-22 18:33N 39°14' W 010°06'  
2015-Apr-19 06:31N 54°11' W 005°10'1112.0
2015-Apr-19 05:33N 54°23' W 005°10'1111.3
2015-Apr-19 04:34N 54°34' W 005°10'10 9.7
2015-Apr-19 03:33N 54°43' W 005°17'9 9.0
2015-Apr-19 02:34N 54°50' W 005°25'8 8.4
2015-Apr-19 01:34N 54°57' W 005°33'9 8.6
2015-Apr-19 00:30N 55°04' W 005°43'9 9.8
2015-Apr-18 23:33N 55°11' W 005°54'1211.7
2015-Apr-18 22:33N 55°20' W 006°06'1212.0
2015-Apr-18 21:33N 55°24' W 006°26'1413.5
2015-Apr-18 20:33N 55°36' W 006°40'1413.9
2015-Apr-18 19:33N 55°47' W 006°54'17610.1
2015-Apr-18 02:05N 58°38' W 005°37'811.8
2015-Apr-18 01:25N 58°46' W 005°34'  

Dump ship's entire track history